sensor_id;sensor_type;location;lat;lon;timestamp;P1;durP1;ratioP1;P2;durP2;ratioP2
313;SDS011;143;51.634;7.112;2023-04-26T00:00:21;8.00;;;3.90;;
313;SDS011;143;51.634;7.112;2023-04-26T00:02:47;7.67;;;3.27;;
313;SDS011;143;51.634;7.112;2023-04-26T00:05:13;14.47;;;3.77;;
313;SDS011;143;51.634;7.112;2023-04-26T00:07:40;6.03;;;3.17;;
313;SDS011;143;51.634;7.112;2023-04-26T00:10:07;11.10;;;3.70;;
313;SDS011;143;51.634;7.112;2023-04-26T00:12:34;8.52;;;3.38;;
313;SDS011;143;51.634;7.112;2023-04-26T00:15:01;12.43;;;3.50;;
313;SDS011;143;51.634;7.112;2023-04-26T00:17:30;5.00;;;3.30;;
313;SDS011;143;51.634;7.112;2023-04-26T00:19:55;6.67;;;2.80;;
313;SDS011;143;51.634;7.112;2023-04-26T00:22:21;9.77;;;3.40;;
313;SDS011;143;51.634;7.112;2023-04-26T00:24:48;9.20;;;3.60;;
313;SDS011;143;51.634;7.112;2023-04-26T00:27:13;6.37;;;3.40;;
313;SDS011;143;51.634;7.112;2023-04-26T00:29:40;11.82;;;3.67;;
313;SDS011;143;51.634;7.112;2023-04-26T00:32:06;9.83;;;3.97;;
313;SDS011;143;51.634;7.112;2023-04-26T00:34:35;9.50;;;3.27;;
313;SDS011;143;51.634;7.112;2023-04-26T00:37:02;9.68;;;3.50;;
313;SDS011;143;51.634;7.112;2023-04-26T00:39:29;14.23;;;4.68;;
313;SDS011;143;51.634;7.112;2023-04-26T00:41:55;7.97;;;3.10;;
313;SDS011;143;51.634;7.112;2023-04-26T00:44:21;15.48;;;4.05;;
313;SDS011;143;51.634;7.112;2023-04-26T00:46:47;10.07;;;3.97;;
313;SDS011;143;51.634;7.112;2023-04-26T00:49:15;14.95;;;4.43;;
313;SDS011;143;51.634;7.112;2023-04-26T00:51:45;13.32;;;4.05;;
313;SDS011;143;51.634;7.112;2023-04-26T00:54:12;10.85;;;4.43;;
313;SDS011;143;51.634;7.112;2023-04-26T00:56:39;18.13;;;3.80;;
313;SDS011;143;51.634;7.112;2023-04-26T00:59:06;12.00;;;3.63;;
313;SDS011;143;51.634;7.112;2023-04-26T01:01:32;8.93;;;4.40;;
313;SDS011;143;51.634;7.112;2023-04-26T01:03:59;12.05;;;4.03;;
313;SDS011;143;51.634;7.112;2023-04-26T01:06:27;10.30;;;3.90;;
313;SDS011;143;51.634;7.112;2023-04-26T01:08:57;5.30;;;3.65;;
313;SDS011;143;51.634;7.112;2023-04-26T01:11:26;13.60;;;4.47;;
313;SDS011;143;51.634;7.112;2023-04-26T01:13:52;7.53;;;3.80;;
313;SDS011;143;51.634;7.112;2023-04-26T01:16:18;10.67;;;4.30;;
313;SDS011;143;51.634;7.112;2023-04-26T01:18:49;8.27;;;4.60;;
313;SDS011;143;51.634;7.112;2023-04-26T01:21:19;12.63;;;4.22;;
313;SDS011;143;51.634;7.112;2023-04-26T01:23:46;10.60;;;4.93;;
313;SDS011;143;51.634;7.112;2023-04-26T01:26:14;14.38;;;4.30;;
313;SDS011;143;51.634;7.112;2023-04-26T01:28:40;7.95;;;3.85;;
313;SDS011;143;51.634;7.112;2023-04-26T01:31:06;16.40;;;4.50;;
313;SDS011;143;51.634;7.112;2023-04-26T01:33:31;9.53;;;3.93;;
313;SDS011;143;51.634;7.112;2023-04-26T01:35:57;6.40;;;3.77;;
313;SDS011;143;51.634;7.112;2023-04-26T01:38:23;8.47;;;4.00;;
313;SDS011;143;51.634;7.112;2023-04-26T01:40:49;9.97;;;4.83;;
313;SDS011;143;51.634;7.112;2023-04-26T01:43:14;12.33;;;4.80;;
313;SDS011;143;51.634;7.112;2023-04-26T01:45:45;8.55;;;4.38;;
313;SDS011;143;51.634;7.112;2023-04-26T01:48:14;9.88;;;4.55;;
313;SDS011;143;51.634;7.112;2023-04-26T01:50:39;8.63;;;4.27;;
313;SDS011;143;51.634;7.112;2023-04-26T01:53:05;8.37;;;3.90;;
313;SDS011;143;51.634;7.112;2023-04-26T01:55:31;8.27;;;4.70;;
313;SDS011;143;51.634;7.112;2023-04-26T01:57:58;6.68;;;4.25;;
313;SDS011;143;51.634;7.112;2023-04-26T02:00:23;15.60;;;5.17;;
313;SDS011;143;51.634;7.112;2023-04-26T02:02:53;13.05;;;4.18;;
313;SDS011;143;51.634;7.112;2023-04-26T02:05:19;12.65;;;4.60;;
313;SDS011;143;51.634;7.112;2023-04-26T02:07:45;11.07;;;4.63;;
313;SDS011;143;51.634;7.112;2023-04-26T02:10:11;13.47;;;4.23;;
313;SDS011;143;51.634;7.112;2023-04-26T02:12:37;10.63;;;4.95;;
313;SDS011;143;51.634;7.112;2023-04-26T02:15:03;11.20;;;4.93;;
313;SDS011;143;51.634;7.112;2023-04-26T02:17:30;15.85;;;4.95;;
313;SDS011;143;51.634;7.112;2023-04-26T02:19:56;13.27;;;5.20;;
313;SDS011;143;51.634;7.112;2023-04-26T02:22:22;10.63;;;4.80;;
313;SDS011;143;51.634;7.112;2023-04-26T02:24:49;14.07;;;4.32;;
313;SDS011;143;51.634;7.112;2023-04-26T02:27:17;11.27;;;6.15;;
313;SDS011;143;51.634;7.112;2023-04-26T02:29:43;15.95;;;5.28;;
313;SDS011;143;51.634;7.112;2023-04-26T02:32:09;11.07;;;5.68;;
313;SDS011;143;51.634;7.112;2023-04-26T02:34:35;11.70;;;5.43;;
313;SDS011;143;51.634;7.112;2023-04-26T02:37:00;11.63;;;5.30;;
313;SDS011;143;51.634;7.112;2023-04-26T02:39:26;14.90;;;5.87;;
313;SDS011;143;51.634;7.112;2023-04-26T02:41:52;14.27;;;5.87;;
313;SDS011;143;51.634;7.112;2023-04-26T02:44:17;14.43;;;6.03;;
313;SDS011;143;51.634;7.112;2023-04-26T02:46:43;22.63;;;5.90;;
313;SDS011;143;51.634;7.112;2023-04-26T02:49:09;17.57;;;5.90;;
313;SDS011;143;51.634;7.112;2023-04-26T02:51:34;14.93;;;6.17;;
313;SDS011;143;51.634;7.112;2023-04-26T02:54:00;12.10;;;6.73;;
313;SDS011;143;51.634;7.112;2023-04-26T02:56:27;14.90;;;6.13;;
313;SDS011;143;51.634;7.112;2023-04-26T02:58:52;20.47;;;6.80;;
313;SDS011;143;51.634;7.112;2023-04-26T03:01:18;14.13;;;7.73;;
313;SDS011;143;51.634;7.112;2023-04-26T03:03:44;15.60;;;6.73;;
313;SDS011;143;51.634;7.112;2023-04-26T03:06:09;22.60;;;6.90;;
313;SDS011;143;51.634;7.112;2023-04-26T03:08:35;12.53;;;6.00;;
313;SDS011;143;51.634;7.112;2023-04-26T03:11:01;14.07;;;7.50;;
313;SDS011;143;51.634;7.112;2023-04-26T03:13:27;17.58;;;8.32;;
313;SDS011;143;51.634;7.112;2023-04-26T03:15:53;12.70;;;6.80;;
313;SDS011;143;51.634;7.112;2023-04-26T03:18:18;14.77;;;8.40;;
313;SDS011;143;51.634;7.112;2023-04-26T03:20:45;13.40;;;7.90;;
313;SDS011;143;51.634;7.112;2023-04-26T03:23:10;18.15;;;8.02;;
313;SDS011;143;51.634;7.112;2023-04-26T03:25:36;14.07;;;7.60;;
313;SDS011;143;51.634;7.112;2023-04-26T03:28:02;15.53;;;8.40;;
313;SDS011;143;51.634;7.112;2023-04-26T03:30:28;20.80;;;8.93;;
313;SDS011;143;51.634;7.112;2023-04-26T03:32:54;17.70;;;8.60;;
313;SDS011;143;51.634;7.112;2023-04-26T03:35:20;15.20;;;8.60;;
313;SDS011;143;51.634;7.112;2023-04-26T03:37:46;23.23;;;9.30;;
313;SDS011;143;51.634;7.112;2023-04-26T03:40:11;16.10;;;8.53;;
313;SDS011;143;51.634;7.112;2023-04-26T03:42:37;15.40;;;8.77;;
313;SDS011;143;51.634;7.112;2023-04-26T03:45:03;15.83;;;7.30;;
313;SDS011;143;51.634;7.112;2023-04-26T03:47:29;20.38;;;9.13;;
313;SDS011;143;51.634;7.112;2023-04-26T03:49:55;20.63;;;8.73;;
313;SDS011;143;51.634;7.112;2023-04-26T03:52:22;22.27;;;9.40;;
313;SDS011;143;51.634;7.112;2023-04-26T03:54:48;14.80;;;8.77;;
313;SDS011;143;51.634;7.112;2023-04-26T03:57:13;19.50;;;9.53;;
313;SDS011;143;51.634;7.112;2023-04-26T03:59:39;23.50;;;8.60;;
313;SDS011;143;51.634;7.112;2023-04-26T04:02:06;23.10;;;9.73;;
313;SDS011;143;51.634;7.112;2023-04-26T04:04:31;16.88;;;9.10;;
313;SDS011;143;51.634;7.112;2023-04-26T04:06:57;20.13;;;8.60;;
313;SDS011;143;51.634;7.112;2023-04-26T04:09:23;18.25;;;10.05;;
313;SDS011;143;51.634;7.112;2023-04-26T04:11:49;19.10;;;10.43;;
313;SDS011;143;51.634;7.112;2023-04-26T04:14:15;20.67;;;10.82;;
313;SDS011;143;51.634;7.112;2023-04-26T04:16:41;19.70;;;11.10;;
313;SDS011;143;51.634;7.112;2023-04-26T04:19:07;19.27;;;9.73;;
313;SDS011;143;51.634;7.112;2023-04-26T04:21:33;25.63;;;11.77;;
313;SDS011;143;51.634;7.112;2023-04-26T04:23:58;22.70;;;10.77;;
313;SDS011;143;51.634;7.112;2023-04-26T04:26:24;22.30;;;11.17;;
313;SDS011;143;51.634;7.112;2023-04-26T04:28:52;23.92;;;11.23;;
313;SDS011;143;51.634;7.112;2023-04-26T04:31:19;18.80;;;10.68;;
313;SDS011;143;51.634;7.112;2023-04-26T04:33:45;21.58;;;9.18;;
313;SDS011;143;51.634;7.112;2023-04-26T04:36:11;23.30;;;9.97;;
313;SDS011;143;51.634;7.112;2023-04-26T04:38:37;17.27;;;9.02;;
313;SDS011;143;51.634;7.112;2023-04-26T04:41:03;22.60;;;10.88;;
313;SDS011;143;51.634;7.112;2023-04-26T04:43:29;25.57;;;10.80;;
313;SDS011;143;51.634;7.112;2023-04-26T04:45:55;21.40;;;10.60;;
313;SDS011;143;51.634;7.112;2023-04-26T04:48:20;17.60;;;10.80;;
313;SDS011;143;51.634;7.112;2023-04-26T04:50:46;19.40;;;10.40;;
313;SDS011;143;51.634;7.112;2023-04-26T04:53:13;21.48;;;10.93;;
313;SDS011;143;51.634;7.112;2023-04-26T04:55:38;21.03;;;10.97;;
313;SDS011;143;51.634;7.112;2023-04-26T04:58:05;22.27;;;11.07;;
313;SDS011;143;51.634;7.112;2023-04-26T05:00:30;25.13;;;10.70;;
313;SDS011;143;51.634;7.112;2023-04-26T05:02:56;23.67;;;11.10;;
313;SDS011;143;51.634;7.112;2023-04-26T05:05:22;20.20;;;10.43;;
313;SDS011;143;51.634;7.112;2023-04-26T05:07:48;25.60;;;11.20;;
313;SDS011;143;51.634;7.112;2023-04-26T05:10:13;21.60;;;10.30;;
313;SDS011;143;51.634;7.112;2023-04-26T05:12:39;19.42;;;10.57;;
313;SDS011;143;51.634;7.112;2023-04-26T05:15:05;29.00;;;10.20;;
313;SDS011;143;51.634;7.112;2023-04-26T05:17:31;18.52;;;10.75;;
313;SDS011;143;51.634;7.112;2023-04-26T05:19:58;22.45;;;11.85;;
313;SDS011;143;51.634;7.112;2023-04-26T05:22:23;21.60;;;11.43;;
313;SDS011;143;51.634;7.112;2023-04-26T05:24:50;20.63;;;10.60;;
313;SDS011;143;51.634;7.112;2023-04-26T05:27:16;23.30;;;11.57;;
313;SDS011;143;51.634;7.112;2023-04-26T05:29:42;32.10;;;11.73;;
313;SDS011;143;51.634;7.112;2023-04-26T05:32:07;23.17;;;10.60;;
313;SDS011;143;51.634;7.112;2023-04-26T05:34:33;26.53;;;11.90;;
313;SDS011;143;51.634;7.112;2023-04-26T05:36:59;27.33;;;10.70;;
313;SDS011;143;51.634;7.112;2023-04-26T05:39:25;27.63;;;11.23;;
313;SDS011;143;51.634;7.112;2023-04-26T05:41:50;32.77;;;12.73;;
313;SDS011;143;51.634;7.112;2023-04-26T05:44:16;27.83;;;12.03;;
313;SDS011;143;51.634;7.112;2023-04-26T05:46:42;32.53;;;12.07;;
313;SDS011;143;51.634;7.112;2023-04-26T05:49:07;28.20;;;12.00;;
313;SDS011;143;51.634;7.112;2023-04-26T05:51:33;27.27;;;11.53;;
313;SDS011;143;51.634;7.112;2023-04-26T05:53:59;25.17;;;10.53;;
313;SDS011;143;51.634;7.112;2023-04-26T05:56:26;36.10;;;13.73;;
313;SDS011;143;51.634;7.112;2023-04-26T05:58:52;26.60;;;13.07;;
313;SDS011;143;51.634;7.112;2023-04-26T06:01:18;29.83;;;12.50;;
313;SDS011;143;51.634;7.112;2023-04-26T06:03:44;29.70;;;12.07;;
313;SDS011;143;51.634;7.112;2023-04-26T06:06:10;31.17;;;13.32;;
313;SDS011;143;51.634;7.112;2023-04-26T06:08:36;26.60;;;12.10;;
313;SDS011;143;51.634;7.112;2023-04-26T06:11:02;24.83;;;11.27;;
313;SDS011;143;51.634;7.112;2023-04-26T06:13:28;27.50;;;12.30;;
313;SDS011;143;51.634;7.112;2023-04-26T06:15:55;22.92;;;11.25;;
313;SDS011;143;51.634;7.112;2023-04-26T06:18:20;25.00;;;11.90;;
313;SDS011;143;51.634;7.112;2023-04-26T06:20:46;21.93;;;11.37;;
313;SDS011;143;51.634;7.112;2023-04-26T06:23:12;29.77;;;12.53;;
313;SDS011;143;51.634;7.112;2023-04-26T06:25:38;25.20;;;11.37;;
313;SDS011;143;51.634;7.112;2023-04-26T06:28:09;27.00;;;9.90;;
313;SDS011;143;51.634;7.112;2023-04-26T06:30:35;17.17;;;9.70;;
313;SDS011;143;51.634;7.112;2023-04-26T06:33:01;23.87;;;11.00;;
313;SDS011;143;51.634;7.112;2023-04-26T06:35:26;26.00;;;12.00;;
313;SDS011;143;51.634;7.112;2023-04-26T06:37:52;27.03;;;11.57;;
313;SDS011;143;51.634;7.112;2023-04-26T06:40:18;23.57;;;9.70;;
313;SDS011;143;51.634;7.112;2023-04-26T06:42:43;30.93;;;9.13;;
313;SDS011;143;51.634;7.112;2023-04-26T06:45:10;27.53;;;10.47;;
313;SDS011;143;51.634;7.112;2023-04-26T06:47:36;17.10;;;8.30;;
313;SDS011;143;51.634;7.112;2023-04-26T06:50:03;21.37;;;9.03;;
313;SDS011;143;51.634;7.112;2023-04-26T06:52:29;20.57;;;9.30;;
313;SDS011;143;51.634;7.112;2023-04-26T06:54:55;18.67;;;9.37;;
313;SDS011;143;51.634;7.112;2023-04-26T06:57:20;21.40;;;9.17;;
313;SDS011;143;51.634;7.112;2023-04-26T06:59:46;21.83;;;7.90;;
313;SDS011;143;51.634;7.112;2023-04-26T07:02:12;15.70;;;6.90;;
313;SDS011;143;51.634;7.112;2023-04-26T07:04:38;26.00;;;9.13;;
313;SDS011;143;51.634;7.112;2023-04-26T07:07:04;26.67;;;8.63;;
313;SDS011;143;51.634;7.112;2023-04-26T07:09:30;18.27;;;7.90;;
313;SDS011;143;51.634;7.112;2023-04-26T07:11:55;20.20;;;7.60;;
313;SDS011;143;51.634;7.112;2023-04-26T07:14:22;15.23;;;7.73;;
313;SDS011;143;51.634;7.112;2023-04-26T07:16:48;15.47;;;6.90;;
313;SDS011;143;51.634;7.112;2023-04-26T07:19:13;18.60;;;6.30;;
313;SDS011;143;51.634;7.112;2023-04-26T07:21:39;17.20;;;6.33;;
313;SDS011;143;51.634;7.112;2023-04-26T07:24:05;18.10;;;7.97;;
313;SDS011;143;51.634;7.112;2023-04-26T07:26:32;29.90;;;6.97;;
313;SDS011;143;51.634;7.112;2023-04-26T07:29:00;20.57;;;5.97;;
313;SDS011;143;51.634;7.112;2023-04-26T07:31:28;17.80;;;5.47;;
313;SDS011;143;51.634;7.112;2023-04-26T07:33:55;13.77;;;5.13;;
313;SDS011;143;51.634;7.112;2023-04-26T07:36:21;13.00;;;5.23;;
313;SDS011;143;51.634;7.112;2023-04-26T07:38:47;12.73;;;4.47;;
313;SDS011;143;51.634;7.112;2023-04-26T07:41:12;8.80;;;4.20;;
313;SDS011;143;51.634;7.112;2023-04-26T07:43:40;15.30;;;4.30;;
313;SDS011;143;51.634;7.112;2023-04-26T07:46:05;12.23;;;3.73;;
313;SDS011;143;51.634;7.112;2023-04-26T07:48:31;16.40;;;4.10;;
313;SDS011;143;51.634;7.112;2023-04-26T07:51:05;6.93;;;3.60;;
313;SDS011;143;51.634;7.112;2023-04-26T07:53:34;7.93;;;4.13;;
313;SDS011;143;51.634;7.112;2023-04-26T07:56:02;14.77;;;3.93;;
313;SDS011;143;51.634;7.112;2023-04-26T07:58:30;13.80;;;4.53;;
313;SDS011;143;51.634;7.112;2023-04-26T08:00:57;11.40;;;3.73;;
313;SDS011;143;51.634;7.112;2023-04-26T08:03:23;7.90;;;3.63;;
313;SDS011;143;51.634;7.112;2023-04-26T08:05:48;6.33;;;3.43;;
313;SDS011;143;51.634;7.112;2023-04-26T08:08:14;7.23;;;3.80;;
313;SDS011;143;51.634;7.112;2023-04-26T08:10:40;17.63;;;4.07;;
313;SDS011;143;51.634;7.112;2023-04-26T08:13:06;18.63;;;5.10;;
313;SDS011;143;51.634;7.112;2023-04-26T08:15:32;12.40;;;4.63;;
313;SDS011;143;51.634;7.112;2023-04-26T08:17:58;11.20;;;4.70;;
313;SDS011;143;51.634;7.112;2023-04-26T08:20:23;15.67;;;4.40;;
313;SDS011;143;51.634;7.112;2023-04-26T08:22:53;14.07;;;4.20;;
313;SDS011;143;51.634;7.112;2023-04-26T08:25:20;13.40;;;4.77;;
313;SDS011;143;51.634;7.112;2023-04-26T08:27:46;13.30;;;4.10;;
313;SDS011;143;51.634;7.112;2023-04-26T08:30:12;9.43;;;3.17;;
313;SDS011;143;51.634;7.112;2023-04-26T08:32:38;6.17;;;2.40;;
313;SDS011;143;51.634;7.112;2023-04-26T08:35:03;12.13;;;3.67;;
313;SDS011;143;51.634;7.112;2023-04-26T08:37:29;9.43;;;3.20;;
313;SDS011;143;51.634;7.112;2023-04-26T08:39:55;6.33;;;2.97;;
313;SDS011;143;51.634;7.112;2023-04-26T08:42:22;5.53;;;2.67;;
313;SDS011;143;51.634;7.112;2023-04-26T08:44:59;13.83;;;3.20;;
313;SDS011;143;51.634;7.112;2023-04-26T08:50:09;9.50;;;3.10;;
313;SDS011;143;51.634;7.112;2023-04-26T08:52:39;5.07;;;2.30;;
313;SDS011;143;51.634;7.112;2023-04-26T08:55:09;5.13;;;2.30;;
313;SDS011;143;51.634;7.112;2023-04-26T08:57:36;6.60;;;2.70;;
313;SDS011;143;51.634;7.112;2023-04-26T09:00:04;8.10;;;1.77;;
313;SDS011;143;51.634;7.112;2023-04-26T09:02:34;5.90;;;2.07;;
313;SDS011;143;51.634;7.112;2023-04-26T09:05:00;7.13;;;2.23;;
313;SDS011;143;51.634;7.112;2023-04-26T09:07:31;6.40;;;2.60;;
313;SDS011;143;51.634;7.112;2023-04-26T09:09:59;5.20;;;2.03;;
313;SDS011;143;51.634;7.112;2023-04-26T09:12:28;4.20;;;1.83;;
313;SDS011;143;51.634;7.112;2023-04-26T09:14:54;14.47;;;2.07;;
313;SDS011;143;51.634;7.112;2023-04-26T09:17:28;5.17;;;2.40;;
313;SDS011;143;51.634;7.112;2023-04-26T09:20:16;6.43;;;2.60;;
313;SDS011;143;51.634;7.112;2023-04-26T09:22:45;9.13;;;2.00;;
313;SDS011;143;51.634;7.112;2023-04-26T09:25:12;5.83;;;2.20;;
313;SDS011;143;51.634;7.112;2023-04-26T09:27:41;6.57;;;2.10;;
313;SDS011;143;51.634;7.112;2023-04-26T09:30:08;3.50;;;1.90;;
313;SDS011;143;51.634;7.112;2023-04-26T09:32:48;2.03;;;1.60;;
313;SDS011;143;51.634;7.112;2023-04-26T09:37:55;6.63;;;1.90;;
313;SDS011;143;51.634;7.112;2023-04-26T09:40:35;7.97;;;2.37;;
313;SDS011;143;51.634;7.112;2023-04-26T09:43:05;4.90;;;2.20;;
313;SDS011;143;51.634;7.112;2023-04-26T09:45:32;3.30;;;1.73;;
313;SDS011;143;51.634;7.112;2023-04-26T09:48:20;7.83;;;2.13;;
313;SDS011;143;51.634;7.112;2023-04-26T09:53:39;6.10;;;2.03;;
313;SDS011;143;51.634;7.112;2023-04-26T09:56:10;9.17;;;2.43;;
313;SDS011;143;51.634;7.112;2023-04-26T09:58:58;9.07;;;2.43;;
313;SDS011;143;51.634;7.112;2023-04-26T10:01:25;14.43;;;2.97;;
313;SDS011;143;51.634;7.112;2023-04-26T10:03:54;5.10;;;2.57;;
313;SDS011;143;51.634;7.112;2023-04-26T10:06:21;7.70;;;2.53;;
313;SDS011;143;51.634;7.112;2023-04-26T10:08:47;7.10;;;2.77;;
313;SDS011;143;51.634;7.112;2023-04-26T10:11:13;8.47;;;2.97;;
313;SDS011;143;51.634;7.112;2023-04-26T10:13:40;8.43;;;2.53;;
313;SDS011;143;51.634;7.112;2023-04-26T10:16:07;5.37;;;2.67;;
313;SDS011;143;51.634;7.112;2023-04-26T10:18:33;4.50;;;2.10;;
313;SDS011;143;51.634;7.112;2023-04-26T10:21:01;2.40;;;1.70;;
313;SDS011;143;51.634;7.112;2023-04-26T10:23:31;4.50;;;2.30;;
313;SDS011;143;51.634;7.112;2023-04-26T10:25:57;4.07;;;2.10;;
313;SDS011;143;51.634;7.112;2023-04-26T10:31:04;18.13;;;2.80;;
313;SDS011;143;51.634;7.112;2023-04-26T10:33:33;6.13;;;2.30;;
313;SDS011;143;51.634;7.112;2023-04-26T10:38:32;10.13;;;3.20;;
313;SDS011;143;51.634;7.112;2023-04-26T10:43:59;3.03;;;2.00;;
313;SDS011;143;51.634;7.112;2023-04-26T10:46:48;5.33;;;2.10;;
313;SDS011;143;51.634;7.112;2023-04-26T10:49:16;4.30;;;2.47;;
313;SDS011;143;51.634;7.112;2023-04-26T10:54:49;6.43;;;2.10;;
313;SDS011;143;51.634;7.112;2023-04-26T10:57:16;6.73;;;2.20;;
313;SDS011;143;51.634;7.112;2023-04-26T11:02:53;10.10;;;3.20;;
313;SDS011;143;51.634;7.112;2023-04-26T11:08:23;5.73;;;2.60;;
313;SDS011;143;51.634;7.112;2023-04-26T11:10:55;11.70;;;2.10;;
313;SDS011;143;51.634;7.112;2023-04-26T11:13:23;4.30;;;1.83;;
313;SDS011;143;51.634;7.112;2023-04-26T11:15:52;4.23;;;2.00;;
313;SDS011;143;51.634;7.112;2023-04-26T11:18:23;9.23;;;2.20;;
313;SDS011;143;51.634;7.112;2023-04-26T11:20:49;7.33;;;2.57;;
313;SDS011;143;51.634;7.112;2023-04-26T11:23:16;6.83;;;2.43;;
313;SDS011;143;51.634;7.112;2023-04-26T11:25:43;5.93;;;2.13;;
313;SDS011;143;51.634;7.112;2023-04-26T11:28:09;9.03;;;2.00;;
313;SDS011;143;51.634;7.112;2023-04-26T11:30:35;6.20;;;2.07;;
313;SDS011;143;51.634;7.112;2023-04-26T11:33:01;3.60;;;2.07;;
313;SDS011;143;51.634;7.112;2023-04-26T11:35:34;4.87;;;1.67;;
313;SDS011;143;51.634;7.112;2023-04-26T11:38:02;4.53;;;2.00;;
313;SDS011;143;51.634;7.112;2023-04-26T11:40:29;5.20;;;2.33;;
313;SDS011;143;51.634;7.112;2023-04-26T11:43:00;6.53;;;2.20;;
313;SDS011;143;51.634;7.112;2023-04-26T11:45:29;13.43;;;2.63;;
313;SDS011;143;51.634;7.112;2023-04-26T11:47:57;7.40;;;1.83;;
313;SDS011;143;51.634;7.112;2023-04-26T11:50:24;5.97;;;2.20;;
313;SDS011;143;51.634;7.112;2023-04-26T11:52:52;2.57;;;2.00;;
313;SDS011;143;51.634;7.112;2023-04-26T11:55:21;6.80;;;1.73;;
313;SDS011;143;51.634;7.112;2023-04-26T11:57:49;4.70;;;2.03;;
313;SDS011;143;51.634;7.112;2023-04-26T12:00:15;5.37;;;2.37;;
313;SDS011;143;51.634;7.112;2023-04-26T12:02:44;5.20;;;2.30;;
313;SDS011;143;51.634;7.112;2023-04-26T12:07:56;2.90;;;1.93;;
313;SDS011;143;51.634;7.112;2023-04-26T12:10:26;7.20;;;2.23;;
313;SDS011;143;51.634;7.112;2023-04-26T12:13:02;5.77;;;2.80;;
313;SDS011;143;51.634;7.112;2023-04-26T12:15:28;8.73;;;2.77;;
313;SDS011;143;51.634;7.112;2023-04-26T12:18:05;7.73;;;1.90;;
313;SDS011;143;51.634;7.112;2023-04-26T12:20:33;4.03;;;2.10;;
313;SDS011;143;51.634;7.112;2023-04-26T12:25:30;3.60;;;2.10;;
313;SDS011;143;51.634;7.112;2023-04-26T12:27:57;4.63;;;2.20;;
313;SDS011;143;51.634;7.112;2023-04-26T12:30:24;3.17;;;2.00;;
313;SDS011;143;51.634;7.112;2023-04-26T12:32:50;6.10;;;2.50;;
313;SDS011;143;51.634;7.112;2023-04-26T12:35:16;7.50;;;2.70;;
313;SDS011;143;51.634;7.112;2023-04-26T12:37:41;6.40;;;2.53;;
313;SDS011;143;51.634;7.112;2023-04-26T12:40:07;5.60;;;2.23;;
313;SDS011;143;51.634;7.112;2023-04-26T12:42:34;6.20;;;2.67;;
313;SDS011;143;51.634;7.112;2023-04-26T12:45:00;4.50;;;2.90;;
313;SDS011;143;51.634;7.112;2023-04-26T12:47:26;15.83;;;2.63;;
313;SDS011;143;51.634;7.112;2023-04-26T12:49:51;5.10;;;2.40;;
313;SDS011;143;51.634;7.112;2023-04-26T12:52:17;7.83;;;2.13;;
313;SDS011;143;51.634;7.112;2023-04-26T12:54:43;2.60;;;1.93;;
313;SDS011;143;51.634;7.112;2023-04-26T12:57:11;3.80;;;2.00;;
313;SDS011;143;51.634;7.112;2023-04-26T12:59:38;4.90;;;2.50;;
313;SDS011;143;51.634;7.112;2023-04-26T13:02:04;4.60;;;1.90;;
313;SDS011;143;51.634;7.112;2023-04-26T13:04:30;6.33;;;2.40;;
313;SDS011;143;51.634;7.112;2023-04-26T13:06:55;7.50;;;2.80;;
313;SDS011;143;51.634;7.112;2023-04-26T13:09:22;4.57;;;1.90;;
313;SDS011;143;51.634;7.112;2023-04-26T13:11:47;6.23;;;2.20;;
313;SDS011;143;51.634;7.112;2023-04-26T13:14:13;6.27;;;2.20;;
313;SDS011;143;51.634;7.112;2023-04-26T13:16:40;6.00;;;2.27;;
313;SDS011;143;51.634;7.112;2023-04-26T13:19:08;9.23;;;2.70;;
313;SDS011;143;51.634;7.112;2023-04-26T13:21:35;5.10;;;2.87;;
313;SDS011;143;51.634;7.112;2023-04-26T13:24:01;5.93;;;2.33;;
313;SDS011;143;51.634;7.112;2023-04-26T13:26:27;6.53;;;2.53;;
313;SDS011;143;51.634;7.112;2023-04-26T13:28:53;6.83;;;2.73;;
313;SDS011;143;51.634;7.112;2023-04-26T13:31:19;9.60;;;2.00;;
313;SDS011;143;51.634;7.112;2023-04-26T13:33:45;8.77;;;2.33;;
313;SDS011;143;51.634;7.112;2023-04-26T13:36:13;8.80;;;2.73;;
313;SDS011;143;51.634;7.112;2023-04-26T13:38:40;5.70;;;2.30;;
313;SDS011;143;51.634;7.112;2023-04-26T13:41:06;3.80;;;2.00;;
313;SDS011;143;51.634;7.112;2023-04-26T13:43:32;5.23;;;2.47;;
313;SDS011;143;51.634;7.112;2023-04-26T13:45:58;9.40;;;2.50;;
313;SDS011;143;51.634;7.112;2023-04-26T13:48:25;6.70;;;2.90;;
313;SDS011;143;51.634;7.112;2023-04-26T13:50:51;6.00;;;2.47;;
313;SDS011;143;51.634;7.112;2023-04-26T13:53:16;4.30;;;2.77;;
313;SDS011;143;51.634;7.112;2023-04-26T13:55:44;10.53;;;2.50;;
313;SDS011;143;51.634;7.112;2023-04-26T13:58:10;4.67;;;2.87;;
313;SDS011;143;51.634;7.112;2023-04-26T14:00:35;7.50;;;3.00;;
313;SDS011;143;51.634;7.112;2023-04-26T14:03:01;5.70;;;2.40;;
313;SDS011;143;51.634;7.112;2023-04-26T14:05:27;3.77;;;2.33;;
313;SDS011;143;51.634;7.112;2023-04-26T14:07:53;5.17;;;2.50;;
313;SDS011;143;51.634;7.112;2023-04-26T14:10:19;11.60;;;1.97;;
313;SDS011;143;51.634;7.112;2023-04-26T14:12:45;6.30;;;2.57;;
313;SDS011;143;51.634;7.112;2023-04-26T14:15:11;5.90;;;2.37;;
313;SDS011;143;51.634;7.112;2023-04-26T14:17:36;5.43;;;2.70;;
313;SDS011;143;51.634;7.112;2023-04-26T14:20:02;7.70;;;2.40;;
313;SDS011;143;51.634;7.112;2023-04-26T14:22:29;7.10;;;2.43;;
313;SDS011;143;51.634;7.112;2023-04-26T14:24:55;6.67;;;3.20;;
313;SDS011;143;51.634;7.112;2023-04-26T14:27:20;6.97;;;3.13;;
313;SDS011;143;51.634;7.112;2023-04-26T14:29:46;3.73;;;2.00;;
313;SDS011;143;51.634;7.112;2023-04-26T14:32:12;3.70;;;2.13;;
313;SDS011;143;51.634;7.112;2023-04-26T14:34:38;4.40;;;2.00;;
313;SDS011;143;51.634;7.112;2023-04-26T14:37:07;8.60;;;2.27;;
313;SDS011;143;51.634;7.112;2023-04-26T14:39:33;5.20;;;2.60;;
313;SDS011;143;51.634;7.112;2023-04-26T14:41:58;9.13;;;2.57;;
313;SDS011;143;51.634;7.112;2023-04-26T14:44:24;5.77;;;2.80;;
313;SDS011;143;51.634;7.112;2023-04-26T14:46:51;5.30;;;2.63;;
313;SDS011;143;51.634;7.112;2023-04-26T14:49:17;4.27;;;2.30;;
313;SDS011;143;51.634;7.112;2023-04-26T14:51:43;11.43;;;3.43;;
313;SDS011;143;51.634;7.112;2023-04-26T14:54:09;6.67;;;2.50;;
313;SDS011;143;51.634;7.112;2023-04-26T14:56:35;8.77;;;2.77;;
313;SDS011;143;51.634;7.112;2023-04-26T14:59:01;3.73;;;2.27;;
313;SDS011;143;51.634;7.112;2023-04-26T15:01:30;5.17;;;2.20;;
313;SDS011;143;51.634;7.112;2023-04-26T15:03:56;8.33;;;2.23;;
313;SDS011;143;51.634;7.112;2023-04-26T15:06:21;8.00;;;2.87;;
313;SDS011;143;51.634;7.112;2023-04-26T15:08:51;5.37;;;2.37;;
313;SDS011;143;51.634;7.112;2023-04-26T15:11:16;5.83;;;3.03;;
313;SDS011;143;51.634;7.112;2023-04-26T15:13:42;12.20;;;2.67;;
313;SDS011;143;51.634;7.112;2023-04-26T15:16:08;4.40;;;2.20;;
313;SDS011;143;51.634;7.112;2023-04-26T15:18:33;4.70;;;2.20;;
313;SDS011;143;51.634;7.112;2023-04-26T15:20:59;6.57;;;2.40;;
313;SDS011;143;51.634;7.112;2023-04-26T15:23:25;4.00;;;2.60;;
313;SDS011;143;51.634;7.112;2023-04-26T15:25:50;5.13;;;2.60;;
313;SDS011;143;51.634;7.112;2023-04-26T15:28:16;4.97;;;2.10;;
313;SDS011;143;51.634;7.112;2023-04-26T15:30:42;5.77;;;2.47;;
313;SDS011;143;51.634;7.112;2023-04-26T15:33:08;6.87;;;2.93;;
313;SDS011;143;51.634;7.112;2023-04-26T15:35:34;11.23;;;2.33;;
313;SDS011;143;51.634;7.112;2023-04-26T15:38:00;9.30;;;2.20;;
313;SDS011;143;51.634;7.112;2023-04-26T15:40:25;6.93;;;2.03;;
313;SDS011;143;51.634;7.112;2023-04-26T15:42:51;5.83;;;2.90;;
313;SDS011;143;51.634;7.112;2023-04-26T15:45:18;6.73;;;2.53;;
313;SDS011;143;51.634;7.112;2023-04-26T15:47:44;5.50;;;2.30;;
313;SDS011;143;51.634;7.112;2023-04-26T15:50:10;6.60;;;2.60;;
313;SDS011;143;51.634;7.112;2023-04-26T15:52:36;5.50;;;2.43;;
313;SDS011;143;51.634;7.112;2023-04-26T15:55:02;9.07;;;2.90;;
313;SDS011;143;51.634;7.112;2023-04-26T15:57:31;2.23;;;1.90;;
313;SDS011;143;51.634;7.112;2023-04-26T15:59:57;4.70;;;2.70;;
313;SDS011;143;51.634;7.112;2023-04-26T16:02:22;8.27;;;3.17;;